Time;durP1;ratioP1;P1;durP2;ratioP2;P2;SDS_P1;SDS_P2;PMS_P1;PMS_P2;Temp;Humidity;BMP_temperature;BMP_pressure;BME280_temperature;BME280_humidity;BME280_pressure;Samples;Min_cycle;Max_cycle;Signal;HPM_P1;HPM_P2
2023/06/24 00:01:41;;;;;;;0.00;0.00;;;;;;;;;;5085748;28;20306;-75
2023/06/24 00:04:10;;;;;;;0.00;0.00;;;;;;;;;;5089143;28;20204;-75
2023/06/24 00:06:39;;;;;;;0.00;0.00;;;;;;;;;;5085924;28;20298;-75
2023/06/24 00:09:07;;;;;;;0.10;0.10;;;;;;;;;;5088781;28;20206;-74
2023/06/24 00:11:34;;;;;;;0.00;0.00;;;;;;;;;;5085873;28;20241;-75
2023/06/24 00:14:00;;;;;;;0.10;0.10;;;;;;;;;;5089417;28;20240;-76
2023/06/24 00:16:27;;;;;;;0.00;0.00;;;;;;;;;;5084808;28;20249;-75
2023/06/24 00:18:54;;;;;;;0.00;0.00;;;;;;;;;;5090220;28;20212;-75
2023/06/24 00:21:22;;;;;;;0.03;0.03;;;;;;;;;;5084174;28;20247;-75
2023/06/24 00:23:49;;;;;;;0.00;0.00;;;;;;;;;;5090689;28;20230;-76
2023/06/24 00:26:16;;;;;;;0.10;0.10;;;;;;;;;;5082645;28;20242;-76
2023/06/24 00:28:42;;;;;;;0.03;0.03;;;;;;;;;;5091055;28;20277;-76
2023/06/24 00:31:11;;;;;;;0.00;0.00;;;;;;;;;;5082210;28;20304;-75
2023/06/24 00:33:38;;;;;;;0.10;0.10;;;;;;;;;;5092002;28;20233;-75
2023/06/24 00:36:05;;;;;;;0.00;0.00;;;;;;;;;;5081590;28;20241;-75
2023/06/24 00:38:32;;;;;;;0.00;0.00;;;;;;;;;;5092680;28;20205;-76
2023/06/24 00:40:59;;;;;;;0.10;0.10;;;;;;;;;;5080832;28;20499;-75
2023/06/24 00:43:25;;;;;;;0.03;0.03;;;;;;;;;;5093475;28;20403;-75
2023/06/24 00:45:52;;;;;;;0.03;0.03;;;;;;;;;;5079604;28;20236;-76
2023/06/24 00:48:20;;;;;;;0.17;0.17;;;;;;;;;;5093798;28;20522;-75
2023/06/24 00:50:46;;;;;;;0.10;0.10;;;;;;;;;;5079093;28;20245;-75
2023/06/24 00:53:13;;;;;;;0.00;0.00;;;;;;;;;;5094622;28;20276;-75
2023/06/24 00:55:40;;;;;;;0.05;0.05;;;;;;;;;;5077715;28;20282;-75
2023/06/24 00:58:07;;;;;;;0.00;0.00;;;;;;;;;;5095403;28;20217;-75
2023/06/24 01:00:34;;;;;;;0.00;0.00;;;;;;;;;;5077183;28;20260;-75
2023/06/24 01:03:01;;;;;;;0.10;0.10;;;;;;;;;;5096439;28;20257;-75
2023/06/24 01:05:29;;;;;;;0.00;0.00;;;;;;;;;;5076217;28;20257;-76
2023/06/24 01:07:56;;;;;;;0.00;0.00;;;;;;;;;;5096687;28;20269;-76
2023/06/24 01:10:23;;;;;;;0.00;0.00;;;;;;;;;;5075308;28;20244;-76
2023/06/24 01:12:51;;;;;;;0.10;0.10;;;;;;;;;;5097728;28;20376;-75
2023/06/24 01:15:19;;;;;;;0.10;0.10;;;;;;;;;;5074695;28;20228;-75
2023/06/24 01:17:49;;;;;;;0.10;0.10;;;;;;;;;;5097813;28;20252;-75
2023/06/24 01:20:18;;;;;;;0.10;0.10;;;;;;;;;;5074727;28;20205;-76
2023/06/24 01:22:57;;;;;;;0.00;0.00;;;;;;;;;;5098159;28;20354;-76
2023/06/24 01:25:33;;;;;;;0.03;0.03;;;;;;;;;;5075317;28;20262;-76
2023/06/24 01:28:20;;;;;;;0.00;0.00;;;;;;;;;;5096144;28;20355;-75
2023/06/24 01:30:55;;;;;;;0.20;0.20;;;;;;;;;;5078418;28;20261;-75
2023/06/24 01:33:26;;;;;;;0.10;0.10;;;;;;;;;;5092941;28;20200;-75
2023/06/24 01:35:53;;;;;;;0.10;0.10;;;;;;;;;;5079142;28;20472;-76
2023/06/24 01:38:23;;;;;;;0.10;0.10;;;;;;;;;;5092972;28;20212;-76
2023/06/24 01:40:49;;;;;;;0.10;0.10;;;;;;;;;;5078731;28;20431;-76
2023/06/24 01:43:16;;;;;;;0.10;0.10;;;;;;;;;;5093513;28;20271;-76
2023/06/24 01:45:43;;;;;;;0.10;0.10;;;;;;;;;;5077915;28;20244;-76
2023/06/24 01:48:12;;;;;;;0.10;0.10;;;;;;;;;;5094205;28;20282;-77
2023/06/24 01:50:43;;;;;;;0.43;0.43;;;;;;;;;;5077145;28;20247;-76
2023/06/24 01:53:10;;;;;;;0.08;0.08;;;;;;;;;;5094525;28;20444;-77
2023/06/24 01:55:38;;;;;;;0.00;0.00;;;;;;;;;;5076997;28;20475;-76
2023/06/24 01:58:06;;;;;;;0.05;0.05;;;;;;;;;;5094720;28;20235;-77
2023/06/24 02:00:33;;;;;;;0.10;0.10;;;;;;;;;;5076495;28;20266;-76
2023/06/24 02:03:01;;;;;;;0.10;0.10;;;;;;;;;;5095390;28;20231;-77
2023/06/24 02:05:29;;;;;;;0.05;0.05;;;;;;;;;;5075726;28;20288;-77
2023/06/24 02:07:58;;;;;;;0.10;0.10;;;;;;;;;;5096407;28;20360;-76
2023/06/24 02:10:26;;;;;;;0.10;0.10;;;;;;;;;;5074854;28;20203;-76
2023/06/24 02:12:54;;;;;;;0.03;0.03;;;;;;;;;;5096354;28;20406;-77
2023/06/24 02:15:23;;;;;;;0.10;0.10;;;;;;;;;;5074428;28;20516;-76
2023/06/24 02:17:51;;;;;;;0.22;0.22;;;;;;;;;;5096677;28;20215;-75
2023/06/24 02:20:21;;;;;;;0.10;0.10;;;;;;;;;;5073844;28;20203;-77
2023/06/24 02:22:49;;;;;;;0.00;0.00;;;;;;;;;;5097034;28;20202;-76
2023/06/24 02:25:17;;;;;;;0.08;0.08;;;;;;;;;;5073555;28;20245;-76
2023/06/24 02:27:45;;;;;;;0.00;0.00;;;;;;;;;;5097766;28;20396;-76
2023/06/24 02:30:13;;;;;;;0.10;0.10;;;;;;;;;;5072958;28;20378;-77
2023/06/24 02:32:40;;;;;;;0.10;0.10;;;;;;;;;;5098279;28;20371;-77
2023/06/24 02:35:08;;;;;;;0.10;0.10;;;;;;;;;;5082931;28;20203;-76
2023/06/24 02:37:35;;;;;;;0.10;0.10;;;;;;;;;;5068298;28;20226;-76
2023/06/24 02:40:05;;;;;;;0.10;0.10;;;;;;;;;;5062747;28;20247;-76
2023/06/24 02:42:34;;;;;;;0.10;0.10;;;;;;;;;;5088193;28;20261;-76
2023/06/24 02:45:02;;;;;;;0.20;0.20;;;;;;;;;;5082836;28;20237;-76
2023/06/24 02:47:30;;;;;;;0.10;0.10;;;;;;;;;;5088210;28;20304;-76
2023/06/24 02:49:57;;;;;;;0.00;0.00;;;;;;;;;;5085292;28;20509;-77
2023/06/24 02:52:28;;;;;;;0.10;0.10;;;;;;;;;;5092041;28;20279;-76
2023/06/24 02:54:56;;;;;;;0.10;0.10;;;;;;;;;;5086332;28;20215;-75
2023/06/24 02:57:25;;;;;;;0.10;0.10;;;;;;;;;;5091594;28;20235;-76
2023/06/24 02:59:54;;;;;;;0.10;0.10;;;;;;;;;;5086435;28;20445;-76
2023/06/24 03:02:22;;;;;;;0.03;0.03;;;;;;;;;;5091848;28;20266;-76
2023/06/24 03:04:50;;;;;;;0.10;0.10;;;;;;;;;;5086116;28;20247;-77
2023/06/24 03:07:20;;;;;;;0.10;0.10;;;;;;;;;;5091795;28;20245;-77
2023/06/24 03:09:46;;;;;;;0.10;0.10;;;;;;;;;;5086369;28;20210;-76
2023/06/24 03:12:13;;;;;;;0.00;0.00;;;;;;;;;;5091675;28;20240;-77
2023/06/24 03:14:39;;;;;;;0.10;0.10;;;;;;;;;;5086352;28;20234;-77
2023/06/24 03:17:08;;;;;;;0.10;0.10;;;;;;;;;;5091217;28;20231;-77
2023/06/24 03:19:34;;;;;;;0.03;0.03;;;;;;;;;;5086252;28;20425;-76
2023/06/24 03:22:02;;;;;;;0.10;0.10;;;;;;;;;;5090470;28;20316;-75
2023/06/24 03:24:28;;;;;;;0.10;0.10;;;;;;;;;;5086813;28;20215;-76
2023/06/24 03:26:56;;;;;;;0.05;0.05;;;;;;;;;;5086784;28;20263;-77
2023/06/24 03:29:23;;;;;;;0.10;0.10;;;;;;;;;;5089828;28;20309;-77
2023/06/24 03:31:50;;;;;;;0.10;0.10;;;;;;;;;;5085955;28;20245;-75
2023/06/24 03:34:17;;;;;;;0.10;0.10;;;;;;;;;;5090650;28;20204;-77
2023/06/24 03:36:44;;;;;;;0.10;0.10;;;;;;;;;;5077572;28;20259;-76
2023/06/24 03:39:10;;;;;;;0.10;0.10;;;;;;;;;;5099461;28;20224;-76
2023/06/24 03:41:37;;;;;;;0.05;0.05;;;;;;;;;;5076504;28;20278;-76
2023/06/24 03:44:03;;;;;;;0.08;0.08;;;;;;;;;;5100221;28;20235;-77
2023/06/24 03:46:32;;;;;;;0.10;0.10;;;;;;;;;;5075550;28;20200;-77
2023/06/24 03:48:59;;;;;;;0.03;0.03;;;;;;;;;;5100780;28;20220;-76
2023/06/24 03:51:27;;;;;;;0.00;0.00;;;;;;;;;;5085673;28;20242;-76
2023/06/24 03:53:53;;;;;;;0.10;0.10;;;;;;;;;;5073759;28;20278;-77
2023/06/24 03:56:19;;;;;;;1.38;1.38;;;;;;;;;;5085240;28;20230;-76
2023/06/24 03:58:46;;;;;;;0.10;0.10;;;;;;;;;;5090529;28;20509;-75
2023/06/24 04:01:12;;;;;;;0.10;0.10;;;;;;;;;;5080638;28;20490;-76
2023/06/24 04:03:38;;;;;;;0.10;0.10;;;;;;;;;;5093438;28;20243;-77
2023/06/24 04:06:05;;;;;;;0.00;0.00;;;;;;;;;;5081912;28;20306;-77
2023/06/24 04:08:33;;;;;;;0.00;0.00;;;;;;;;;;5093071;28;20201;-77
2023/06/24 04:11:02;;;;;;;0.05;0.05;;;;;;;;;;5081707;28;20420;-76
2023/06/24 04:13:28;;;;;;;0.05;0.05;;;;;;;;;;5093253;28;20206;-76
2023/06/24 04:15:55;;;;;;;0.10;0.10;;;;;;;;;;5080752;28;20315;-77
2023/06/24 04:18:21;;;;;;;0.47;0.45;;;;;;;;;;5094106;28;20295;-77
2023/06/24 04:20:48;;;;;;;0.10;0.10;;;;;;;;;;5079812;28;20244;-76
2023/06/24 04:23:15;;;;;;;0.10;0.10;;;;;;;;;;5095211;28;20221;-76
2023/06/24 04:25:42;;;;;;;0.10;0.10;;;;;;;;;;5078810;28;20286;-76
2023/06/24 04:28:09;;;;;;;0.10;0.10;;;;;;;;;;5095692;28;20238;-77
2023/06/24 04:30:38;;;;;;;0.10;0.10;;;;;;;;;;5077808;28;20239;-76
2023/06/24 04:33:04;;;;;;;0.10;0.10;;;;;;;;;;5096349;28;20262;-77
2023/06/24 04:35:31;;;;;;;0.08;0.08;;;;;;;;;;5077492;28;20394;-76
2023/06/24 04:37:57;;;;;;;0.10;0.10;;;;;;;;;;5096860;28;20215;-76
2023/06/24 04:40:23;;;;;;;0.10;0.10;;;;;;;;;;5076150;28;20253;-76
2023/06/24 04:42:51;;;;;;;1.15;1.15;;;;;;;;;;5098069;28;20391;-76
2023/06/24 04:45:17;;;;;;;0.10;0.10;;;;;;;;;;5075496;28;20273;-76
2023/06/24 04:47:44;;;;;;;0.00;0.00;;;;;;;;;;5098343;28;20238;-77
2023/06/24 04:50:11;;;;;;;0.10;0.10;;;;;;;;;;5074589;28;20402;-76
2023/06/24 04:52:37;;;;;;;0.10;0.10;;;;;;;;;;5099438;28;20275;-77
2023/06/24 04:55:04;;;;;;;0.10;0.10;;;;;;;;;;5084361;28;20579;-76
2023/06/24 04:57:31;;;;;;;0.10;0.10;;;;;;;;;;5089682;28;20618;-76
2023/06/24 04:59:59;;;;;;;0.10;0.10;;;;;;;;;;5083866;28;20292;-76
2023/06/24 05:02:25;;;;;;;0.00;0.00;;;;;;;;;;5089663;28;20265;-76
2023/06/24 05:04:52;;;;;;;0.03;0.03;;;;;;;;;;5084179;28;20203;-77
2023/06/24 05:07:19;;;;;;;0.10;0.10;;;;;;;;;;5089554;28;20378;-76
2023/06/24 05:09:46;;;;;;;0.10;0.10;;;;;;;;;;5083821;28;20272;-76
2023/06/24 05:12:13;;;;;;;0.30;0.30;;;;;;;;;;5089231;28;20282;-76
2023/06/24 05:14:39;;;;;;;0.10;0.10;;;;;;;;;;5083743;28;20205;-76
2023/06/24 05:17:07;;;;;;;0.10;0.10;;;;;;;;;;5089211;28;20519;-76
2023/06/24 05:19:35;;;;;;;0.10;0.10;;;;;;;;;;5083738;28;20275;-77
2023/06/24 05:22:02;;;;;;;0.10;0.10;;;;;;;;;;5088447;28;20254;-76
2023/06/24 05:24:29;;;;;;;1.50;0.70;;;;;;;;;;5084532;28;20203;-76
2023/06/24 05:26:55;;;;;;;0.05;0.05;;;;;;;;;;5087547;28;20249;-77
2023/06/24 05:29:21;;;;;;;0.10;0.10;;;;;;;;;;5085397;28;20276;-76
2023/06/24 05:31:48;;;;;;;0.10;0.10;;;;;;;;;;5086530;28;20314;-77
2023/06/24 05:34:15;;;;;;;0.10;0.10;;;;;;;;;;5086292;28;20424;-76
2023/06/24 05:36:42;;;;;;;0.10;0.10;;;;;;;;;;5085563;28;20258;-76
2023/06/24 05:39:09;;;;;;;0.32;0.32;;;;;;;;;;5086898;28;20243;-72
2023/06/24 05:41:36;;;;;;;0.10;0.10;;;;;;;;;;5084906;28;20299;-72
2023/06/24 05:44:03;;;;;;;0.00;0.00;;;;;;;;;;5087740;28;20204;-72
2023/06/24 05:46:29;;;;;;;0.35;0.35;;;;;;;;;;5083902;28;20289;-72
2023/06/24 05:48:55;;;;;;;0.10;0.10;;;;;;;;;;5088269;28;20488;-72
2023/06/24 05:51:23;;;;;;;0.10;0.10;;;;;;;;;;5082943;28;20309;-72
2023/06/24 05:53:49;;;;;;;0.13;0.13;;;;;;;;;;5089388;28;20239;-72
2023/06/24 05:56:16;;;;;;;0.10;0.10;;;;;;;;;;5081967;28;20263;-72
2023/06/24 05:58:42;;;;;;;0.10;0.10;;;;;;;;;;5090214;28;20233;-72
2023/06/24 06:01:10;;;;;;;0.10;0.10;;;;;;;;;;5080485;28;20238;-72
2023/06/24 06:03:36;;;;;;;1.80;1.20;;;;;;;;;;5091130;28;20235;-72
2023/06/24 06:06:03;;;;;;;0.10;0.10;;;;;;;;;;5080000;28;20269;-72
2023/06/24 06:08:30;;;;;;;0.00;0.00;;;;;;;;;;5091974;28;20397;-71
2023/06/24 06:10:57;;;;;;;0.10;0.10;;;;;;;;;;5081770;28;20264;-72
2023/06/24 06:13:23;;;;;;;0.10;0.10;;;;;;;;;;5092302;28;20275;-72
2023/06/24 06:15:50;;;;;;;0.10;0.10;;;;;;;;;;5078563;28;20306;-72
2023/06/24 06:18:16;;;;;;;0.10;0.10;;;;;;;;;;5093137;28;20258;-72
2023/06/24 06:20:42;;;;;;;0.10;0.10;;;;;;;;;;5077284;28;20239;-72
2023/06/24 06:23:09;;;;;;;0.10;0.10;;;;;;;;;;5094234;28;20526;-72
2023/06/24 06:25:37;;;;;;;0.47;0.47;;;;;;;;;;5080041;28;20249;-72
2023/06/24 06:28:03;;;;;;;0.10;0.10;;;;;;;;;;5099016;28;20267;-72
2023/06/24 06:30:30;;;;;;;0.00;0.00;;;;;;;;;;5079416;28;20309;-72
2023/06/24 06:32:56;;;;;;;0.00;0.00;;;;;;;;;;5099545;28;20271;-72
2023/06/24 06:35:23;;;;;;;0.10;0.10;;;;;;;;;;5078343;28;20231;-72
2023/06/24 06:37:52;;;;;;;0.10;0.10;;;;;;;;;;5100648;28;20462;-72
2023/06/24 06:40:19;;;;;;;0.00;0.00;;;;;;;;;;5077955;28;20295;-72
2023/06/24 06:42:46;;;;;;;0.10;0.10;;;;;;;;;;5101040;28;20259;-72
2023/06/24 06:45:13;;;;;;;6.57;6.28;;;;;;;;;;5076839;28;20272;-72
2023/06/24 06:47:39;;;;;;;0.03;0.03;;;;;;;;;;5101505;28;20451;-71
2023/06/24 06:50:07;;;;;;;0.10;0.10;;;;;;;;;;5086727;28;20295;-71
2023/06/24 06:52:34;;;;;;;0.10;0.10;;;;;;;;;;5075209;28;20485;-72
2023/06/24 06:55:00;;;;;;;0.10;0.10;;;;;;;;;;5086673;28;20232;-71
2023/06/24 06:57:27;;;;;;;0.10;0.10;;;;;;;;;;5091966;28;20256;-72
2023/06/24 06:59:55;;;;;;;0.00;0.00;;;;;;;;;;5086432;28;20310;-72
2023/06/24 07:02:21;;;;;;;0.10;0.10;;;;;;;;;;5091941;28;20499;-72
2023/06/24 07:04:48;;;;;;;0.03;0.03;;;;;;;;;;5086176;28;20232;-71
2023/06/24 07:07:14;;;;;;;0.32;0.32;;;;;;;;;;5091771;28;20241;-72
2023/06/24 07:09:41;;;;;;;0.10;0.10;;;;;;;;;;5086128;28;20314;-72
2023/06/24 07:12:07;;;;;;;0.03;0.03;;;;;;;;;;5091408;28;20259;-72
2023/06/24 07:14:34;;;;;;;0.10;0.10;;;;;;;;;;5086304;28;20428;-72
2023/06/24 07:17:02;;;;;;;0.10;0.10;;;;;;;;;;5090725;28;20468;-72
2023/06/24 07:19:28;;;;;;;0.10;0.10;;;;;;;;;;5086939;28;20226;-72
2023/06/24 07:21:54;;;;;;;0.55;0.55;;;;;;;;;;5089736;28;20308;-72
2023/06/24 07:24:21;;;;;;;0.20;0.20;;;;;;;;;;5087537;28;20217;-72
2023/06/24 07:26:47;;;;;;;0.10;0.10;;;;;;;;;;5088559;28;20260;-72
2023/06/24 07:29:14;;;;;;;0.10;0.10;;;;;;;;;;5088261;28;20200;-72
2023/06/24 07:31:40;;;;;;;0.68;0.68;;;;;;;;;;5087635;28;20305;-72
2023/06/24 07:34:08;;;;;;;0.03;0.03;;;;;;;;;;5088982;28;20238;-74
2023/06/24 07:36:34;;;;;;;0.10;0.10;;;;;;;;;;5086518;28;20246;-76
2023/06/24 07:39:01;;;;;;;0.00;0.00;;;;;;;;;;5089818;28;20261;-74
2023/06/24 07:41:27;;;;;;;0.10;0.10;;;;;;;;;;5085674;28;20244;-73
2023/06/24 07:43:54;;;;;;;0.10;0.10;;;;;;;;;;5090807;28;20282;-73
2023/06/24 07:46:21;;;;;;;0.10;0.10;;;;;;;;;;5084960;28;20309;-70
2023/06/24 07:48:47;;;;;;;0.00;0.00;;;;;;;;;;5091470;28;20230;-73
2023/06/24 07:51:15;;;;;;;0.00;0.00;;;;;;;;;;5083811;28;20245;-72
2023/06/24 07:53:41;;;;;;;0.10;0.10;;;;;;;;;;5092231;28;20203;-72
2023/06/24 07:56:08;;;;;;;0.10;0.10;;;;;;;;;;5082869;28;20300;-72
2023/06/24 07:58:34;;;;;;;0.10;0.10;;;;;;;;;;5092957;28;20230;-73
2023/06/24 08:01:01;;;;;;;0.00;0.00;;;;;;;;;;5081951;28;20600;-74
2023/06/24 08:03:28;;;;;;;0.20;0.20;;;;;;;;;;5093897;28;20243;-73
2023/06/24 08:05:54;;;;;;;0.10;0.10;;;;;;;;;;5080836;28;20240;-72
2023/06/24 08:08:22;;;;;;;0.08;0.08;;;;;;;;;;5094714;28;20208;-73
2023/06/24 08:10:48;;;;;;;0.10;0.10;;;;;;;;;;5080011;28;20261;-75
2023/06/24 08:13:15;;;;;;;0.00;0.00;;;;;;;;;;5095349;28;20264;-75
2023/06/24 08:15:41;;;;;;;0.10;0.10;;;;;;;;;;5078952;28;20298;-74
2023/06/24 08:18:07;;;;;;;0.03;0.03;;;;;;;;;;5096479;28;20608;-75
2023/06/24 08:20:34;;;;;;;0.10;0.10;;;;;;;;;;5078071;28;20463;-75
2023/06/24 08:23:00;;;;;;;0.10;0.10;;;;;;;;;;5097304;28;20281;-75
2023/06/24 08:25:28;;;;;;;0.00;0.00;;;;;;;;;;5076976;28;20211;-74
2023/06/24 08:27:54;;;;;;;1.40;1.40;;;;;;;;;;5098050;28;20501;-74
2023/06/24 08:30:21;;;;;;;0.20;0.20;;;;;;;;;;5076093;28;20207;-75
2023/06/24 08:32:47;;;;;;;0.08;0.08;;;;;;;;;;5098404;28;20262;-72
2023/06/24 08:35:14;;;;;;;0.00;0.00;;;;;;;;;;5075127;28;20450;-74
2023/06/24 08:37:41;;;;;;;0.00;0.00;;;;;;;;;;5099448;28;20207;-74
2023/06/24 08:40:08;;;;;;;0.00;0.00;;;;;;;;;;5084721;28;20276;-74
2023/06/24 08:42:36;;;;;;;0.20;0.20;;;;;;;;;;5073098;28;20208;-74
2023/06/24 08:45:02;;;;;;;0.10;0.10;;;;;;;;;;5084280;28;20271;-74
2023/06/24 08:47:29;;;;;;;0.10;0.10;;;;;;;;;;5089168;28;20240;-74
2023/06/24 08:49:59;;;;;;;0.10;0.10;;;;;;;;;;5086408;28;20201;-74
2023/06/24 08:52:26;;;;;;;0.10;0.10;;;;;;;;;;5089856;28;20312;-74
2023/06/24 08:54:55;;;;;;;0.00;0.00;;;;;;;;;;5084130;28;20259;-72
2023/06/24 08:57:21;;;;;;;0.10;0.10;;;;;;;;;;5089716;28;20308;-75
2023/06/24 08:59:49;;;;;;;0.00;0.00;;;;;;;;;;5083907;28;20257;-72
2023/06/24 09:02:15;;;;;;;0.03;0.03;;;;;;;;;;5089674;28;20311;-73
2023/06/24 09:04:42;;;;;;;0.10;0.10;;;;;;;;;;5083911;28;20226;-73
2023/06/24 09:07:08;;;;;;;0.28;0.28;;;;;;;;;;5089087;28;20240;-74
2023/06/24 09:09:42;;;;;;;0.10;0.10;;;;;;;;;;5084074;28;20236;-74
2023/06/24 09:12:10;;;;;;;0.00;0.00;;;;;;;;;;5089562;28;20302;-73
2023/06/24 09:14:37;;;;;;;0.05;0.05;;;;;;;;;;5083864;28;20217;-74
2023/06/24 09:17:05;;;;;;;0.08;0.08;;;;;;;;;;5088726;28;20259;-74
2023/06/24 09:19:32;;;;;;;0.10;0.10;;;;;;;;;;5084457;28;20228;-74
2023/06/24 09:22:02;;;;;;;0.00;0.00;;;;;;;;;;5088051;28;20271;-73
2023/06/24 09:24:28;;;;;;;0.10;0.10;;;;;;;;;;5084757;28;20244;-74
2023/06/24 09:26:57;;;;;;;0.03;0.03;;;;;;;;;;5087643;28;20261;-74
2023/06/24 09:29:25;;;;;;;0.03;0.03;;;;;;;;;;5085088;28;20570;-74
2023/06/24 09:31:54;;;;;;;0.08;0.08;;;;;;;;;;5087082;28;20241;-73
2023/06/24 09:34:22;;;;;;;0.10;0.10;;;;;;;;;;5085207;28;20251;-73
2023/06/24 09:36:52;;;;;;;0.00;0.00;;;;;;;;;;5086672;28;20239;-74
2023/06/24 09:39:18;;;;;;;0.00;0.00;;;;;;;;;;5085663;28;20421;-74
2023/06/24 09:41:49;;;;;;;0.00;0.00;;;;;;;;;;5086090;28;20243;-74
2023/06/24 09:44:16;;;;;;;5.82;1.10;;;;;;;;;;5086018;28;20194;-74
2023/06/24 09:46:43;;;;;;;0.10;0.10;;;;;;;;;;5085605;28;20254;-74
2023/06/24 09:49:10;;;;;;;0.00;0.00;;;;;;;;;;5086759;28;20265;-74
2023/06/24 09:51:39;;;;;;;0.10;0.10;;;;;;;;;;5084912;28;20245;-74
2023/06/24 09:54:06;;;;;;;0.00;0.00;;;;;;;;;;5087373;28;20273;-74
2023/06/24 09:56:33;;;;;;;0.00;0.00;;;;;;;;;;5084396;28;20313;-74
2023/06/24 09:59:00;;;;;;;0.28;0.28;;;;;;;;;;5089146;28;20229;-74
2023/06/24 10:01:27;;;;;;;0.03;0.03;;;;;;;;;;5087239;28;20304;-74
2023/06/24 10:03:53;;;;;;;0.00;0.00;;;;;;;;;;5092871;28;20274;-74
2023/06/24 10:06:20;;;;;;;0.00;0.00;;;;;;;;;;5086728;28;20310;-74
2023/06/24 10:08:48;;;;;;;0.00;0.00;;;;;;;;;;5093890;28;20438;-74
2023/06/24 10:11:14;;;;;;;0.00;0.00;;;;;;;;;;5085621;28;20648;-74
2023/06/24 10:13:41;;;;;;;0.10;0.10;;;;;;;;;;5094842;28;20436;-74
2023/06/24 10:16:07;;;;;;;0.05;0.05;;;;;;;;;;5084337;28;20415;-74
2023/06/24 10:18:34;;;;;;;0.00;0.00;;;;;;;;;;5095732;28;20574;-74
2023/06/24 10:21:01;;;;;;;0.00;0.00;;;;;;;;;;5083632;28;20253;-73
2023/06/24 10:23:30;;;;;;;0.00;0.00;;;;;;;;;;5096258;28;20203;-74
2023/06/24 10:25:58;;;;;;;0.00;0.00;;;;;;;;;;5083340;28;20508;-74
2023/06/24 10:28:24;;;;;;;0.10;0.10;;;;;;;;;;5096408;28;20213;-74
2023/06/24 10:30:55;;;;;;;0.00;0.00;;;;;;;;;;5082429;28;20265;-74
2023/06/24 10:33:21;;;;;;;0.00;0.00;;;;;;;;;;5096690;28;20271;-74
2023/06/24 10:35:47;;;;;;;0.10;0.10;;;;;;;;;;5081897;28;20249;-74
2023/06/24 10:38:14;;;;;;;0.00;0.00;;;;;;;;;;5097201;28;20204;-74
2023/06/24 10:40:40;;;;;;;0.00;0.00;;;;;;;;;;5080921;28;20306;-74
2023/06/24 10:43:22;;;;;;;0.10;0.10;;;;;;;;;;5098220;28;20439;-74
2023/06/24 10:45:51;;;;;;;0.10;0.10;;;;;;;;;;5079777;28;20258;-74
2023/06/24 10:48:19;;;;;;;0.00;0.00;;;;;;;;;;5096621;28;20371;-74
2023/06/24 10:50:46;;;;;;;0.00;0.00;;;;;;;;;;5081080;28;20238;-74
2023/06/24 10:53:13;;;;;;;0.10;0.10;;;;;;;;;;5097482;28;20382;-74
2023/06/24 10:55:39;;;;;;;0.00;0.00;;;;;;;;;;5080537;28;20492;-74
2023/06/24 10:58:09;;;;;;;0.00;0.00;;;;;;;;;;5098007;28;20559;-74
2023/06/24 11:00:35;;;;;;;0.00;0.00;;;;;;;;;;5079712;28;20255;-74
2023/06/24 11:03:10;;;;;;;0.00;0.00;;;;;;;;;;5098657;28;20361;-74
2023/06/24 11:05:38;;;;;;;0.00;0.00;;;;;;;;;;5079698;28;20239;-74
2023/06/24 11:08:05;;;;;;;0.00;0.00;;;;;;;;;;5098273;28;20274;-74
2023/06/24 11:10:32;;;;;;;0.00;0.00;;;;;;;;;;5078739;28;20301;-74
2023/06/24 11:12:58;;;;;;;0.00;0.00;;;;;;;;;;5098880;28;20241;-74
2023/06/24 11:15:25;;;;;;;0.00;0.00;;;;;;;;;;5078048;28;20204;-74
2023/06/24 11:17:52;;;;;;;0.00;0.00;;;;;;;;;;5099643;28;20386;-74
2023/06/24 11:20:19;;;;;;;0.08;0.08;;;;;;;;;;5077289;28;20227;-74
2023/06/24 11:22:46;;;;;;;0.00;0.00;;;;;;;;;;5100048;28;20211;-73
2023/06/24 11:25:16;;;;;;;0.00;0.00;;;;;;;;;;5076163;28;20238;-74
2023/06/24 11:27:42;;;;;;;0.00;0.00;;;;;;;;;;5100612;28;20203;-74
2023/06/24 11:30:09;;;;;;;0.00;0.00;;;;;;;;;;5076755;28;20270;-74
2023/06/24 11:32:36;;;;;;;0.00;0.00;;;;;;;;;;5101374;28;20278;-74
2023/06/24 11:35:02;;;;;;;0.00;0.00;;;;;;;;;;5085707;28;20204;-74
2023/06/24 11:37:32;;;;;;;0.00;0.00;;;;;;;;;;5091190;28;20246;-74
2023/06/24 11:40:02;;;;;;;0.00;0.00;;;;;;;;;;5085820;28;20227;-74
2023/06/24 11:42:29;;;;;;;0.00;0.00;;;;;;;;;;5091091;28;20246;-74
2023/06/24 11:44:59;;;;;;;0.00;0.00;;;;;;;;;;5085798;28;20203;-74
2023/06/24 11:47:26;;;;;;;0.00;0.00;;;;;;;;;;5090905;28;20241;-74
2023/06/24 11:49:53;;;;;;;0.00;0.00;;;;;;;;;;5085680;28;20435;-74
2023/06/24 11:52:19;;;;;;;0.93;0.47;;;;;;;;;;5090888;28;20314;-74
2023/06/24 11:54:51;;;;;;;0.10;0.10;;;;;;;;;;5085646;28;20455;-74
2023/06/24 11:57:17;;;;;;;0.00;0.00;;;;;;;;;;5090708;28;20246;-74
2023/06/24 11:59:43;;;;;;;1.52;1.42;;;;;;;;;;5085313;28;20231;-74
2023/06/24 12:02:14;;;;;;;0.00;0.00;;;;;;;;;;5090574;28;20243;-74
2023/06/24 12:04:44;;;;;;;0.40;0.40;;;;;;;;;;5085083;28;20204;-74
2023/06/24 12:07:10;;;;;;;0.00;0.00;;;;;;;;;;5090679;28;20246;-74
2023/06/24 12:09:38;;;;;;;0.00;0.00;;;;;;;;;;5085557;28;20235;-75
2023/06/24 12:12:06;;;;;;;0.10;0.10;;;;;;;;;;5090118;28;20243;-74
2023/06/24 12:14:33;;;;;;;0.00;0.00;;;;;;;;;;5085604;28;20294;-74
2023/06/24 12:16:59;;;;;;;0.00;0.00;;;;;;;;;;5089314;28;20305;-74
2023/06/24 12:19:25;;;;;;;0.00;0.00;;;;;;;;;;5085678;28;20294;-74
2023/06/24 12:21:53;;;;;;;0.00;0.00;;;;;;;;;;5087205;28;20238;-74
2023/06/24 12:24:19;;;;;;;0.00;0.00;;;;;;;;;;5087062;28;20234;-74
2023/06/24 12:26:46;;;;;;;0.00;0.00;;;;;;;;;;5087255;28;20254;-74
2023/06/24 12:29:14;;;;;;;0.00;0.00;;;;;;;;;;5087194;28;20285;-74
2023/06/24 12:31:40;;;;;;;0.00;0.00;;;;;;;;;;5086509;28;20306;-74
2023/06/24 12:34:07;;;;;;;0.00;0.00;;;;;;;;;;5088319;28;20210;-74
2023/06/24 12:36:33;;;;;;;0.00;0.00;;;;;;;;;;5085538;28;20558;-74
2023/06/24 12:39:00;;;;;;;0.10;0.10;;;;;;;;;;5089105;28;20438;-74
2023/06/24 12:41:28;;;;;;;0.00;0.00;;;;;;;;;;5084471;28;20483;-74
2023/06/24 12:43:54;;;;;;;0.00;0.00;;;;;;;;;;5089762;28;20271;-74
2023/06/24 12:46:22;;;;;;;0.00;0.00;;;;;;;;;;5083544;28;20262;-74
2023/06/24 12:48:48;;;;;;;0.00;0.00;;;;;;;;;;5090689;28;20211;-74
2023/06/24 12:51:14;;;;;;;0.00;0.00;;;;;;;;;;5082825;28;20254;-74
2023/06/24 12:53:41;;;;;;;0.00;0.00;;;;;;;;;;5091227;28;20200;-74
2023/06/24 12:56:08;;;;;;;0.00;0.00;;;;;;;;;;5081753;28;20242;-74
2023/06/24 12:58:34;;;;;;;0.00;0.00;;;;;;;;;;5092155;28;20203;-74
2023/06/24 13:01:01;;;;;;;0.00;0.00;;;;;;;;;;5080845;28;20266;-74
2023/06/24 13:03:29;;;;;;;0.00;0.00;;;;;;;;;;5093114;28;20210;-74
2023/06/24 13:05:55;;;;;;;0.00;0.00;;;;;;;;;;5080074;28;20264;-74
2023/06/24 13:08:21;;;;;;;0.00;0.00;;;;;;;;;;5093695;28;20274;-75
2023/06/24 13:10:48;;;;;;;0.00;0.00;;;;;;;;;;5078998;28;20241;-74
2023/06/24 13:13:14;;;;;;;0.00;0.00;;;;;;;;;;5094646;28;20203;-74
2023/06/24 13:15:41;;;;;;;0.00;0.00;;;;;;;;;;5077953;28;20479;-74
2023/06/24 13:18:07;;;;;;;0.00;0.00;;;;;;;;;;5095398;28;20567;-74
2023/06/24 13:20:35;;;;;;;0.00;0.00;;;;;;;;;;5077076;28;20245;-74
2023/06/24 13:23:01;;;;;;;0.00;0.00;;;;;;;;;;5095996;28;20282;-74
2023/06/24 13:25:27;;;;;;;0.00;0.00;;;;;;;;;;5076430;28;20255;-74
2023/06/24 13:27:54;;;;;;;0.00;0.00;;;;;;;;;;5096762;28;20274;-74
2023/06/24 13:30:21;;;;;;;0.00;0.00;;;;;;;;;;5075280;28;20233;-74
2023/06/24 13:32:49;;;;;;;0.10;0.10;;;;;;;;;;5097177;28;20207;-74
2023/06/24 13:35:15;;;;;;;0.00;0.00;;;;;;;;;;5074196;28;20203;-75
2023/06/24 13:37:43;;;;;;;0.00;0.00;;;;;;;;;;5098475;28;20275;-75
2023/06/24 13:40:11;;;;;;;0.00;0.00;;;;;;;;;;5073422;28;20223;-74
2023/06/24 13:42:37;;;;;;;0.00;0.00;;;;;;;;;;5098795;28;20274;-74
2023/06/24 13:45:04;;;;;;;0.00;0.00;;;;;;;;;;5083744;28;20210;-74
2023/06/24 13:47:30;;;;;;;0.00;0.00;;;;;;;;;;5088854;28;20307;-74
2023/06/24 13:49:58;;;;;;;0.00;0.00;;;;;;;;;;5083456;28;20231;-74
2023/06/24 13:52:25;;;;;;;1.27;0.80;;;;;;;;;;5088870;28;20238;-74
2023/06/24 13:54:52;;;;;;;0.00;0.00;;;;;;;;;;5083722;28;20203;-74
2023/06/24 13:57:19;;;;;;;0.00;0.00;;;;;;;;;;5088911;28;20244;-74
2023/06/24 13:59:45;;;;;;;0.00;0.00;;;;;;;;;;5083540;28;20297;-74
2023/06/24 14:02:12;;;;;;;0.10;0.10;;;;;;;;;;5088833;28;20302;-74
2023/06/24 14:04:39;;;;;;;0.10;0.10;;;;;;;;;;5083793;28;20230;-74
2023/06/24 14:07:05;;;;;;;0.00;0.00;;;;;;;;;;5088367;28;20312;-74
2023/06/24 14:09:32;;;;;;;0.00;0.00;;;;;;;;;;5083920;28;20279;-74
2023/06/24 14:12:00;;;;;;;0.00;0.00;;;;;;;;;;5087368;28;20238;-74
2023/06/24 14:14:26;;;;;;;0.00;0.00;;;;;;;;;;5084698;28;20274;-74
2023/06/24 14:16:52;;;;;;;0.00;0.00;;;;;;;;;;5086580;28;20262;-74
2023/06/24 14:19:19;;;;;;;0.00;0.00;;;;;;;;;;5085205;28;20203;-74
2023/06/24 14:21:45;;;;;;;0.00;0.00;;;;;;;;;;5085705;28;20443;-74
2023/06/24 14:24:11;;;;;;;0.00;0.00;;;;;;;;;;5086363;28;20210;-74
2023/06/24 14:26:38;;;;;;;0.00;0.00;;;;;;;;;;5084693;28;20238;-74
2023/06/24 14:29:06;;;;;;;0.00;0.00;;;;;;;;;;5087209;28;20246;-74
2023/06/24 14:31:32;;;;;;;0.00;0.00;;;;;;;;;;5083748;28;20235;-74
2023/06/24 14:33:58;;;;;;;0.00;0.00;;;;;;;;;;5087896;28;20274;-74
2023/06/24 14:36:25;;;;;;;0.00;0.00;;;;;;;;;;5083065;28;20302;-74
2023/06/24 14:38:51;;;;;;;0.00;0.00;;;;;;;;;;5088477;28;20226;-74
2023/06/24 14:41:17;;;;;;;0.00;0.00;;;;;;;;;;5081946;28;20239;-74
2023/06/24 14:43:44;;;;;;;0.00;0.00;;;;;;;;;;5089626;28;20203;-74